Honea Path, SC

4:36 PM EST on March 03, 2015 (GMT -0500)
Greenwood County | Change Station
CLOSE
Current Station
Airport
Location: Greenwood,
Elevation: 630 ft
Nearby Weather Stations

Elev 630 ft 34.25 °N, 82.16 °W | Updated 40 minutes ago

Overcast
Overcast
47 °F
Feels Like 47 °F
N
5
Wind Variable Wind from NE

Today
High -- | Low -- °F
--% Chance of Precip.
Yesterday
High -- | Low -- °F
Precip. -- in
6:56 AM 6:27 PM
Waxing Gibbous, 97% visible
Pressure 30.19 in
Visibility 8.0 miles
Clouds Overcast 500 ft
Dew Point 45 °F
Humidity 93%
Rainfall 0.09 in
Snow Depth Not available.
UV 1 out of 12
Pollen .40 out of 12
Air Quality Not available.
Flu Activity Not available.
METAR KGRD 032056Z AUTO 05004KT 8SM OVC005 08/07 A3019 RMK AO2 RAE01 CIG 003V008 SLP223 P0000 60003 T00830072 58014

More Conditions Fewer Conditions

Pressure 30.19 in
Visibility 8.0 miles
Clouds Overcast 500 ft
Dew Point 45 °F
Humidity 93%
Rainfall 0.09 in
Snow Depth Not available.
UV 1 out of 12
Pollen .40 out of 12
Air Quality Not available.
Flu Activity Not available.
METAR KGRD 032056Z AUTO 05004KT 8SM OVC005 08/07 A3019 RMK AO2 RAE01 CIG 003V008 SLP223 P0000 60003 T00830072 58014

More Conditions Fewer Conditions

10-Day Weather Forecast

Almanac

Astronomy

Mar. 03, 2015 Rise Set
Actual Time
Civil Twilight
Nautical Twilight
Astronomical Twilight
Moon
Length of Visible Light
Length of Day
Tomorrow will be .
, % of the Moon is Illuminated

Today's Extremes

State Highs State Lows

Community

WunderPhotos

Upload Photos

1,802,261 photos uploaded!

WunderBlogs® & News

Nearby

Air Quality

  Air Quality AQ Index Pollutant
Not available.

Snow Depth

Station Depth Elevation

Earthquake Activity

City Distance Mag. Time & Date
Minimum magnitude displayed is 2.5.

Coastal Water Temperatures

Place Temperature

Nearby Weather Stations